METAR Reports From Nearby Airports

 

KLUD - Decatur, Texas, USA
Distance from Wildwood: ESE 5mi, 8km
Actualización: May 26, 2020 11:35pm
Despejado
Despejado
 Viento del SE
Viento: SE 5 mph , 7 km/h
Temperatura: 64°F , 18°C
Rocío: 59°F , 15°C
Humedad: 83%
Barómetro: 29.92 inHg , 1013.2 hPa
Clouds: Despejado
Visibility: 10 miles , 16 km
2020/05/27 04:35 KLUD 270435Z AUTO 14004KT 10SM CLR 18/15 A2992 RMK AO2 T01750150
KXBP - Bridgeport, Texas, USA
Distance from Wildwood: OSO 11mi, 18km
Actualización: May 26, 2020 11:35pm
Despejado
Despejado
 Viento del calm
Viento: Calma
Temperatura: 59°F , 15°C
Rocío: 59°F , 15°C
Humedad: 100%
Barómetro: 29.93 inHg , 1013.5 hPa
Clouds: Despejado
Visibility: 7 miles , 11 km
2020/05/27 04:35 KXBP 270435Z AUTO 00000KT 7SM CLR 15/15 A2993 RMK AO2 T01530153
 
K0F2 - Bowie, Texas, USA
Distance from Wildwood: NNO 24mi, 39km
Actualización: May 26, 2020 11:35pm
Despejado
Despejado
 Viento del calm
Viento: Calma
Temperatura: 64°F , 18°C
Rocío: 63°F , 17°C
Humedad: 94%
Barómetro: 29.92 inHg , 1013.2 hPa
Clouds: Despejado
Visibility: 10 miles , 16 km
2020/05/27 04:35 K0F2 270435Z AUTO 00000KT 10SM CLR 18/17 A2992 RMK AO2 T01750169
KDTO - Denton, Texas, USA
Distance from Wildwood: E 27mi, 44km
Actualización: May 26, 2020 10:53pm
Despejado
Despejado
 Viento del calm
Viento: Calma
Temperatura: 64°F , 18°C
Rocío: 61°F , 16°C
Humedad: 88%
Barómetro: 29.91 inHg , 1012.9 hPa
Clouds: Despejado
Visibility: 10 miles , 16 km
2020/05/27 03:53 KDTO 270353Z AUTO 00000KT 10SM CLR 18/16 A2991 RMK AO2 RAB43E52 SLP124 P0000 T01780161
 
KAFW - Ft Worth/Allianc, Texas, USA
Distance from Wildwood: SE 29mi, 46km
Actualización: May 26, 2020 10:53pm
Mostly Cloudy
Mostly Cloudy
 Viento del calm
Viento: Calma
Temperatura: 68°F , 20°C
Rocío: 59°F , 15°C
Humedad: 73%
Barómetro: 29.91 inHg , 1012.9 hPa
Clouds: Mostly Cloudy
Visibility: 10 miles , 16 km
Cloud details: Mostly Cloudy 18000 ft
Mostly Cloudy 25000 ft
2020/05/27 03:53 KAFW 270353Z 00000KT 10SM BKN180 BKN250 20/15 A2991 RMK AO2 SLP121 T02000150 $
KFTW - Fort Worth, Texas, USA
Distance from Wildwood: SSE 34mi, 55km
Actualización: May 26, 2020 10:53pm
Despejado
Despejado
 Viento del calm
Viento: Calma
Temperatura: 66°F , 19°C
Rocío: 59°F , 15°C
Humedad: 78%
Barómetro: 29.91 inHg , 1012.9 hPa
Clouds: Despejado
Visibility: 10 miles , 16 km
2020/05/27 03:53 KFTW 270353Z 00000KT 10SM CLR 19/15 A2991 RMK AO2 SLP123 T01940150
 
KNFW - Fort Worth Nas, Texas, USA
Distance from Wildwood: SSE 36mi, 58km
Actualización: May 26, 2020 10:52pm
Partly Cloudy
Partly Cloudy
 Viento del calm
Viento: Calma
Temperatura: 68°F , 20°C
Rocío: 59°F , 15°C
Humedad: 73%
Barómetro: 29.92 inHg , 1013.2 hPa
Clouds: Partly Cloudy
Visibility: 10 miles , 16 km
Cloud details: Few Clouds 15000 ft
Partly Cloudy 25000 ft
2020/05/27 03:52 KNFW 270352Z 00000KT 10SM FEW150 SCT250 20/15 A2992 RMK AO2 SLP114 T02000150 VISNO N $
KGLE - Gainesville, Texas, USA
Distance from Wildwood: NE 38mi, 61km
Actualización: May 26, 2020 11:35pm
Despejado
Despejado
 Viento del calm
Viento: Calma
Temperatura: 63°F , 17°C
Rocío: 61°F , 16°C
Humedad: 94%
Barómetro: 29.92 inHg , 1013.2 hPa
Clouds: Despejado
Visibility: 10 miles , 16 km
2020/05/27 04:35 KGLE 270435Z AUTO 00000KT 10SM CLR 17/16 A2992 RMK AO2 T01660163 PWINO
 
KMWL - Mineral Wells, Texas, USA
Distance from Wildwood: SO 41mi, 65km
Actualización: May 26, 2020 10:53pm
Despejado
Despejado
 Viento del ESE
Viento: ESE 6 mph , 9 km/h
Temperatura: 63°F , 17°C
Rocío: 57°F , 14°C
Humedad: 83%
Barómetro: 29.91 inHg , 1012.9 hPa
Clouds: Despejado
Visibility: 10 miles , 16 km
2020/05/27 03:53 KMWL 270353Z AUTO 12005KT 10SM CLR 17/14 A2991 RMK AO2 SLP118 T01670144
KDFW - Dallas/Ft Worth, Texas, USA
Distance from Wildwood: ESE 45mi, 73km
Actualización: May 26, 2020 10:53pm
Partly Cloudy
Partly Cloudy
 Viento del calm
Viento: Calma
Temperatura: 66°F , 19°C
Rocío: 61°F , 16°C
Humedad: 83%
Barómetro: 29.90 inHg , 1012.5 hPa
Clouds: Partly Cloudy
Visibility: 10 miles , 16 km
Cloud details: Partly Cloudy 16000 ft
Partly Cloudy 25000 ft
2020/05/27 03:53 KDFW 270353Z 00000KT 10SM SCT160 SCT250 19/16 A2990 RMK AO2 SLP117 T01940156